Nautic — A8HQ3 — position and weather

sailwx.info

Track history (hours):
 
Tides and Currents Weather Stations Pressure Air Temp Water Temp Dewpoint Dewpoint Depression Visibility Wind Speed Wind Dir Waves Ship Positions

Nautic

Last reported at 2015-Jul-28 06:33 UTC. Time now 2015-Jul-30 10:07 UTC.
Position N 29°25' E 032°36'.

Length 274 m; draft 15.5 m.

Type: Tanker. MMSI: 636012754.

Date/timePositionNaut miles runAvg speedWind from/ knotsBaromVisibWave heightAir tempDewpointWater temp
2015-Jul-28 06:33N 29°25' E 032°36'70 8.7
2015-Jul-27 22:33N 30°34' E 032°18'7 7.1
2015-Jul-27 21:31N 30°41' E 032°20'8 8.4
2015-Jul-27 20:34N 30°49' E 032°19'9 9.3
2015-Jul-27 19:34N 30°58' E 032°19'13 9.6
2015-Jul-27 18:13N 31°11' E 032°20'7 7.3
2015-Jul-27 17:18N 31°17' E 032°22'8 8.7
2015-Jul-27 16:24N 31°25' E 032°24'4 4.3
2015-Jul-27 15:33N 31°28' E 032°22'3 2.6
2015-Jul-27 14:23N 31°28' E 032°18'0 0.2
2015-Jul-27 11:31N 31°28' E 032°18'  
2015-Jul-24 09:34N 34°32' E 033°25'4 3.4
2015-Jul-24 08:31N 34°33' E 033°29'2 1.9
2015-Jul-24 07:33N 34°34' E 033°26'5 5.2
2015-Jul-24 06:34N 34°31' E 033°21'4 4.0
2015-Jul-24 05:33N 34°30' E 033°16'1 0.5
2015-Jul-24 04:33N 34°29' E 033°16'0 0.3
2015-Jul-24 03:34N 34°29' E 033°16'7 7.2
2015-Jul-24 02:34N 34°31' E 033°25'1110.8
2015-Jul-24 01:32N 34°32' E 033°38'2 2.3
2015-Jul-24 00:32N 34°32' E 033°41'0 0.2
2015-Jul-23 23:33N 34°32' E 033°41'0 0.3
2015-Jul-23 22:34N 34°32' E 033°41'0 0.3
2015-Jul-23 21:32N 34°32' E 033°41'1 0.6
2015-Jul-23 20:33N 34°33' E 033°41'1 0.7
2015-Jul-23 19:33N 34°33' E 033°41'1 0.8
2015-Jul-23 18:32N 34°34' E 033°40'1 1.0
2015-Jul-23 17:34N 34°34' E 033°39'1 1.1
2015-Jul-23 16:33N 34°35' E 033°38'1 1.2
2015-Jul-23 15:34N 34°35' E 033°37'1 1.2
2015-Jul-23 14:34N 34°36' E 033°35'1 1.2
2015-Jul-23 13:34N 34°36' E 033°34'1 1.3
2015-Jul-23 12:34N 34°36' E 033°32'1 1.3
2015-Jul-23 11:34N 34°36' E 033°31'1 1.2
2015-Jul-23 10:34N 34°35' E 033°29'1 1.1
2015-Jul-23 09:34N 34°35' E 033°28'1 1.1
2015-Jul-23 08:33N 34°34' E 033°27'1 0.8
2015-Jul-23 07:34N 34°34' E 033°26'4 3.7
2015-Jul-23 06:33N 34°30' E 033°25'1010.5
2015-Jul-23 05:34N 34°27' E 033°37'1 1.5
2015-Jul-23 04:34N 34°26' E 033°39'0 0.3
2015-Jul-23 03:34N 34°26' E 033°39'0 0.3
2015-Jul-23 02:34N 34°26' E 033°39'0 0.3
2015-Jul-23 01:33N 34°26' E 033°39'0 0.3
2015-Jul-23 00:34N 34°26' E 033°39'0 0.4
2015-Jul-22 23:33N 34°26' E 033°39'1 0.5
2015-Jul-22 22:33N 34°27' E 033°39'1 0.7
2015-Jul-22 21:34N 34°27' E 033°39'1 0.8
2015-Jul-22 20:34N 34°28' E 033°39'1 1.0
2015-Jul-22 19:34N 34°29' E 033°38'1 1.2
2015-Jul-22 18:33N 34°30' E 033°37'1 1.3
2015-Jul-22 17:34N 34°31' E 033°36'2 1.5
2015-Jul-22 16:34N 34°32' E 033°34'1 1.5
2015-Jul-22 15:34N 34°32' E 033°32'1 1.4
2015-Jul-22 14:34N 34°33' E 033°31'1 1.3
2015-Jul-22 13:34N 34°33' E 033°29'1 1.2
2015-Jul-22 12:33N 34°32' E 033°28'1 1.0
2015-Jul-22 11:34N 34°32' E 033°27'1 0.9
2015-Jul-22 10:34N 34°32' E 033°26'1 0.9
2015-Jul-22 09:34N 34°31' E 033°25'1 1.0
2015-Jul-22 08:34N 34°31' E 033°24'3 3.1
2015-Jul-22 07:34N 34°32' E 033°27'9 8.9
2015-Jul-22 06:33N 34°24' E 033°32'6 5.6
2015-Jul-22 05:33N 34°19' E 033°35'0 0.2
2015-Jul-22 04:34N 34°19' E 033°35'0 0.2
2015-Jul-22 03:34N 34°19' E 033°35'0 0.2
2015-Jul-22 02:34N 34°19' E 033°35'0 0.4
2015-Jul-22 01:34N 34°20' E 033°35'1 0.6
2015-Jul-22 00:34N 34°20' E 033°35'1 0.7
2015-Jul-21 23:34N 34°21' E 033°35'1 0.8
2015-Jul-21 22:34N 34°22' E 033°35'1 1.0
2015-Jul-21 21:34N 34°23' E 033°35'1 1.0
2015-Jul-21 20:33N 34°23' E 033°34'1 1.0
2015-Jul-21 19:33N 34°24' E 033°34'1 1.1
2015-Jul-21 18:33N 34°25' E 033°33'1 1.2
2015-Jul-21 17:34N 34°26' E 033°31'1 1.4
2015-Jul-21 16:33N 34°26' E 033°30'1 1.2
2015-Jul-21 15:31N 34°27' E 033°28'1 1.1
2015-Jul-21 14:34N 34°27' E 033°27'1 0.9
2015-Jul-21 13:34N 34°27' E 033°26'1 1.0
2015-Jul-21 12:34N 34°26' E 033°25'4 4.2
2015-Jul-21 11:34N 34°31' E 033°26'7 7.3
2015-Jul-21 10:33N 34°37' E 033°30'1 0.9
2015-Jul-21 09:33N 34°36' E 033°30'1 0.7
2015-Jul-21 08:34N 34°36' E 033°29'1 0.7
2015-Jul-21 07:34N 34°35' E 033°29'1 0.7
2015-Jul-21 06:34N 34°34' E 033°29'1 0.6
2015-Jul-21 05:34N 34°34' E 033°28'1 0.5
2015-Jul-21 04:33N 34°33' E 033°28'0 0.4
2015-Jul-21 03:34N 34°33' E 033°28'0 0.3
2015-Jul-21 02:30N 34°33' E 033°28'0 0.3
2015-Jul-21 01:34N 34°32' E 033°27'0 0.4
2015-Jul-21 00:24N 34°32' E 033°27'0 0.4
2015-Jul-20 23:32N 34°32' E 033°27'0 0.5
2015-Jul-20 22:34N 34°32' E 033°26'1 0.6
2015-Jul-20 21:34N 34°31' E 033°26'1 0.6
2015-Jul-20 20:34N 34°31' E 033°25'1 0.7
2015-Jul-20 19:33N 34°30' E 033°24'1 0.7
2015-Jul-20 18:34N 34°30' E 033°24'1 0.9
2015-Jul-20 17:34N 34°30' E 033°23'1 0.9
2015-Jul-20 16:33N 34°29' E 033°22'1 1.0
2015-Jul-20 15:34N 34°29' E 033°21'1 0.7
2015-Jul-20 14:34N 34°29' E 033°20'6 5.6
2015-Jul-20 13:33N 34°33' E 033°24'4 3.8
2015-Jul-20 12:33N 34°36' E 033°27'1 1.0
2015-Jul-20 11:34N 34°36' E 033°26'1 0.9
2015-Jul-20 10:34N 34°35' E 033°25'1 1.1
2015-Jul-20 09:34N 34°35' E 033°24'1 1.1
2015-Jul-20 08:34N 34°34' E 033°23'0 0.4
2015-Jul-20 07:34N 34°33' E 033°23'5 5.4
2015-Jul-20 06:34N 34°32' E 033°30'7 7.1
2015-Jul-20 05:34N 34°30' E 033°38'0 0.4
2015-Jul-20 04:33N 34°30' E 033°38'0 0.4
2015-Jul-20 03:34N 34°30' E 033°37'0 0.3
2015-Jul-20 02:34N 34°30' E 033°37'0 0.4
2015-Jul-20 01:34N 34°30' E 033°36'0 0.5
2015-Jul-20 00:34N 34°30' E 033°36'1 0.6
2015-Jul-19 23:34N 34°31' E 033°35'1 0.6
2015-Jul-19 22:34N 34°31' E 033°35'1 0.6
2015-Jul-19 21:34N 34°31' E 033°34'1 0.6
2015-Jul-19 20:33N 34°32' E 033°33'1 0.6
2015-Jul-19 19:34N 34°32' E 033°33'1 0.7
2015-Jul-19 18:34N 34°32' E 033°32'1 0.7
2015-Jul-19 17:33N 34°32' E 033°31'1 0.9
2015-Jul-19 16:34N 34°33' E 033°30'1 0.9
2015-Jul-19 15:34N 34°33' E 033°29'1 0.9
2015-Jul-19 14:34N 34°33' E 033°28'1 0.9
2015-Jul-19 13:34N 34°33' E 033°27'  
Track history (hours):
 
Tides and Currents Weather Stations Pressure Air Temp Water Temp Dewpoint Dewpoint Depression Visibility Wind Speed Wind Dir Waves Ship Positions

Nautic

Last reported at 2015-Jul-28 06:33 UTC. Time now 2015-Jul-30 10:07 UTC.
Position N 29°25' E 032°36'.

Length 274 m; draft 15.5 m.

Type: Tanker. MMSI: 636012754.

Date/timePositionNaut miles runAvg speedWind from/ knotsBaromVisibWave heightAir tempDewpointWater temp
2015-Jul-28 06:33N 29°25' E 032°36'70 8.7
2015-Jul-27 22:33N 30°34' E 032°18'7 7.1
2015-Jul-27 21:31N 30°41' E 032°20'8 8.4
2015-Jul-27 20:34N 30°49' E 032°19'9 9.3
2015-Jul-27 19:34N 30°58' E 032°19'13 9.6
2015-Jul-27 18:13N 31°11' E 032°20'7 7.3
2015-Jul-27 17:18N 31°17' E 032°22'8 8.7
2015-Jul-27 16:24N 31°25' E 032°24'4 4.3
2015-Jul-27 15:33N 31°28' E 032°22'3 2.6
2015-Jul-27 14:23N 31°28' E 032°18'0 0.2
2015-Jul-27 11:31N 31°28' E 032°18'  
2015-Jul-24 09:34N 34°32' E 033°25'4 3.4
2015-Jul-24 08:31N 34°33' E 033°29'2 1.9
2015-Jul-24 07:33N 34°34' E 033°26'5 5.2
2015-Jul-24 06:34N 34°31' E 033°21'4 4.0
2015-Jul-24 05:33N 34°30' E 033°16'1 0.5
2015-Jul-24 04:33N 34°29' E 033°16'0 0.3
2015-Jul-24 03:34N 34°29' E 033°16'7 7.2
2015-Jul-24 02:34N 34°31' E 033°25'1110.8
2015-Jul-24 01:32N 34°32' E 033°38'2 2.3
2015-Jul-24 00:32N 34°32' E 033°41'0 0.2
2015-Jul-23 23:33N 34°32' E 033°41'0 0.3
2015-Jul-23 22:34N 34°32' E 033°41'0 0.3
2015-Jul-23 21:32N 34°32' E 033°41'1 0.6
2015-Jul-23 20:33N 34°33' E 033°41'1 0.7
2015-Jul-23 19:33N 34°33' E 033°41'1 0.8
2015-Jul-23 18:32N 34°34' E 033°40'1 1.0
2015-Jul-23 17:34N 34°34' E 033°39'1 1.1
2015-Jul-23 16:33N 34°35' E 033°38'1 1.2
2015-Jul-23 15:34N 34°35' E 033°37'1 1.2
2015-Jul-23 14:34N 34°36' E 033°35'1 1.2
2015-Jul-23 13:34N 34°36' E 033°34'1 1.3
2015-Jul-23 12:34N 34°36' E 033°32'1 1.3
2015-Jul-23 11:34N 34°36' E 033°31'1 1.2
2015-Jul-23 10:34N 34°35' E 033°29'1 1.1
2015-Jul-23 09:34N 34°35' E 033°28'1 1.1
2015-Jul-23 08:33N 34°34' E 033°27'1 0.8
2015-Jul-23 07:34N 34°34' E 033°26'4 3.7
2015-Jul-23 06:33N 34°30' E 033°25'1010.5
2015-Jul-23 05:34N 34°27' E 033°37'1 1.5
2015-Jul-23 04:34N 34°26' E 033°39'0 0.3
2015-Jul-23 03:34N 34°26' E 033°39'0 0.3
2015-Jul-23 02:34N 34°26' E 033°39'0 0.3
2015-Jul-23 01:33N 34°26' E 033°39'0 0.3
2015-Jul-23 00:34N 34°26' E 033°39'0 0.4
2015-Jul-22 23:33N 34°26' E 033°39'1 0.5
2015-Jul-22 22:33N 34°27' E 033°39'1 0.7
2015-Jul-22 21:34N 34°27' E 033°39'1 0.8
2015-Jul-22 20:34N 34°28' E 033°39'1 1.0
2015-Jul-22 19:34N 34°29' E 033°38'1 1.2
2015-Jul-22 18:33N 34°30' E 033°37'1 1.3
2015-Jul-22 17:34N 34°31' E 033°36'2 1.5
2015-Jul-22 16:34N 34°32' E 033°34'1 1.5
2015-Jul-22 15:34N 34°32' E 033°32'1 1.4
2015-Jul-22 14:34N 34°33' E 033°31'1 1.3
2015-Jul-22 13:34N 34°33' E 033°29'1 1.2
2015-Jul-22 12:33N 34°32' E 033°28'1 1.0
2015-Jul-22 11:34N 34°32' E 033°27'1 0.9
2015-Jul-22 10:34N 34°32' E 033°26'1 0.9
2015-Jul-22 09:34N 34°31' E 033°25'1 1.0
2015-Jul-22 08:34N 34°31' E 033°24'3 3.1
2015-Jul-22 07:34N 34°32' E 033°27'9 8.9
2015-Jul-22 06:33N 34°24' E 033°32'6 5.6
2015-Jul-22 05:33N 34°19' E 033°35'0 0.2
2015-Jul-22 04:34N 34°19' E 033°35'0 0.2
2015-Jul-22 03:34N 34°19' E 033°35'0 0.2
2015-Jul-22 02:34N 34°19' E 033°35'0 0.4
2015-Jul-22 01:34N 34°20' E 033°35'1 0.6
2015-Jul-22 00:34N 34°20' E 033°35'1 0.7
2015-Jul-21 23:34N 34°21' E 033°35'1 0.8
2015-Jul-21 22:34N 34°22' E 033°35'1 1.0
2015-Jul-21 21:34N 34°23' E 033°35'1 1.0
2015-Jul-21 20:33N 34°23' E 033°34'1 1.0
2015-Jul-21 19:33N 34°24' E 033°34'1 1.1
2015-Jul-21 18:33N 34°25' E 033°33'1 1.2
2015-Jul-21 17:34N 34°26' E 033°31'1 1.4
2015-Jul-21 16:33N 34°26' E 033°30'1 1.2
2015-Jul-21 15:31N 34°27' E 033°28'1 1.1
2015-Jul-21 14:34N 34°27' E 033°27'1 0.9
2015-Jul-21 13:34N 34°27' E 033°26'1 1.0
2015-Jul-21 12:34N 34°26' E 033°25'4 4.2
2015-Jul-21 11:34N 34°31' E 033°26'7 7.3
2015-Jul-21 10:33N 34°37' E 033°30'1 0.9
2015-Jul-21 09:33N 34°36' E 033°30'1 0.7
2015-Jul-21 08:34N 34°36' E 033°29'1 0.7
2015-Jul-21 07:34N 34°35' E 033°29'1 0.7
2015-Jul-21 06:34N 34°34' E 033°29'1 0.6
2015-Jul-21 05:34N 34°34' E 033°28'1 0.5
2015-Jul-21 04:33N 34°33' E 033°28'0 0.4
2015-Jul-21 03:34N 34°33' E 033°28'0 0.3
2015-Jul-21 02:30N 34°33' E 033°28'0 0.3
2015-Jul-21 01:34N 34°32' E 033°27'0 0.4
2015-Jul-21 00:24N 34°32' E 033°27'0 0.4
2015-Jul-20 23:32N 34°32' E 033°27'0 0.5
2015-Jul-20 22:34N 34°32' E 033°26'1 0.6
2015-Jul-20 21:34N 34°31' E 033°26'1 0.6
2015-Jul-20 20:34N 34°31' E 033°25'1 0.7
2015-Jul-20 19:33N 34°30' E 033°24'1 0.7
2015-Jul-20 18:34N 34°30' E 033°24'1 0.9
2015-Jul-20 17:34N 34°30' E 033°23'1 0.9
2015-Jul-20 16:33N 34°29' E 033°22'1 1.0
2015-Jul-20 15:34N 34°29' E 033°21'1 0.7
2015-Jul-20 14:34N 34°29' E 033°20'6 5.6
2015-Jul-20 13:33N 34°33' E 033°24'4 3.8
2015-Jul-20 12:33N 34°36' E 033°27'1 1.0
2015-Jul-20 11:34N 34°36' E 033°26'1 0.9
2015-Jul-20 10:34N 34°35' E 033°25'1 1.1
2015-Jul-20 09:34N 34°35' E 033°24'1 1.1
2015-Jul-20 08:34N 34°34' E 033°23'0 0.4
2015-Jul-20 07:34N 34°33' E 033°23'5 5.4
2015-Jul-20 06:34N 34°32' E 033°30'7 7.1
2015-Jul-20 05:34N 34°30' E 033°38'0 0.4
2015-Jul-20 04:33N 34°30' E 033°38'0 0.4
2015-Jul-20 03:34N 34°30' E 033°37'0 0.3
2015-Jul-20 02:34N 34°30' E 033°37'0 0.4
2015-Jul-20 01:34N 34°30' E 033°36'0 0.5
2015-Jul-20 00:34N 34°30' E 033°36'1 0.6
2015-Jul-19 23:34N 34°31' E 033°35'1 0.6
2015-Jul-19 22:34N 34°31' E 033°35'1 0.6
2015-Jul-19 21:34N 34°31' E 033°34'1 0.6
2015-Jul-19 20:33N 34°32' E 033°33'1 0.6
2015-Jul-19 19:34N 34°32' E 033°33'1 0.7
2015-Jul-19 18:34N 34°32' E 033°32'1 0.7
2015-Jul-19 17:33N 34°32' E 033°31'1 0.9
2015-Jul-19 16:34N 34°33' E 033°30'1 0.9
2015-Jul-19 15:34N 34°33' E 033°29'1 0.9
2015-Jul-19 14:34N 34°33' E 033°28'1 0.9
2015-Jul-19 13:34N 34°33' E 033°27'  

Dump ship's entire track history